createdAt,value
2023-01-04T00:04:50.937Z,1.50
2023-01-04T00:09:55.304Z,1.70
2023-01-04T00:14:58.310Z,1.60
2023-01-04T00:20:01.541Z,1.87
2023-01-04T00:25:04.895Z,1.90
2023-01-04T00:30:08.812Z,1.57
2023-01-04T00:35:22.119Z,1.40
2023-01-04T00:40:35.224Z,1.30
2023-01-04T00:45:38.005Z,1.20
2023-01-04T00:50:40.749Z,1.60
2023-01-04T00:55:43.757Z,1.80
2023-01-04T01:00:46.757Z,1.87
2023-01-04T01:05:50.259Z,1.73
2023-01-04T01:10:55.415Z,1.97
2023-01-04T01:16:10.703Z,1.60
2023-01-04T01:21:21.262Z,1.47
2023-01-04T01:26:25.953Z,1.63
2023-01-04T01:31:29.638Z,1.63
2023-01-04T01:36:32.781Z,1.87
2023-01-04T01:41:36.396Z,1.20
2023-01-04T01:46:47.264Z,1.40
2023-01-04T01:51:51.204Z,1.05
2023-01-04T01:56:58.207Z,1.90
2023-01-04T02:02:01.428Z,1.70
2023-01-04T02:07:05.040Z,1.87
2023-01-04T02:12:12.824Z,1.77
2023-01-04T02:17:39.568Z,1.77
2023-01-04T02:23:38.724Z,2.00
2023-01-04T02:29:21.822Z,2.10
2023-01-04T02:40:17.928Z,5.30
2023-01-04T02:45:35.232Z,3.60
2023-01-04T02:50:59.179Z,3.67
2023-01-04T02:56:36.939Z,4.77
2023-01-04T03:02:33.543Z,5.07
2023-01-04T03:07:54.872Z,4.10
2023-01-04T03:13:18.125Z,4.27
2023-01-04T03:18:28.385Z,3.70
2023-01-04T03:23:55.125Z,3.63
2023-01-04T03:29:26.105Z,4.17
2023-01-04T03:34:48.089Z,4.93
2023-01-04T03:40:45.982Z,5.23
2023-01-04T03:46:54.616Z,5.10
2023-01-04T03:52:02.485Z,4.97
2023-01-04T03:57:07.242Z,6.17
2023-01-04T04:02:14.423Z,5.90
2023-01-04T04:07:35.779Z,4.80
2023-01-04T04:12:38.481Z,4.37
2023-01-04T04:17:41.949Z,4.40
2023-01-04T04:22:45.083Z,5.03
2023-01-04T04:27:47.925Z,4.50
2023-01-04T04:32:50.910Z,3.70
2023-01-04T04:37:53.855Z,3.60
2023-01-04T04:42:56.845Z,3.63
2023-01-04T04:47:59.915Z,4.77
2023-01-04T04:53:02.845Z,3.97
2023-01-04T04:58:05.819Z,4.10
2023-01-04T05:03:08.973Z,3.67
2023-01-04T05:08:12.472Z,4.50
2023-01-04T05:13:15.432Z,4.00
2023-01-04T05:18:20.936Z,4.07
2023-01-04T05:23:24.646Z,3.67
2023-01-04T05:28:28.218Z,3.77
2023-01-04T05:33:32.826Z,3.07
2023-01-04T05:38:35.784Z,2.50
2023-01-04T05:43:38.787Z,3.00
2023-01-04T05:48:41.810Z,7.00
2023-01-04T05:53:44.743Z,4.80
2023-01-04T05:58:47.712Z,5.27
2023-01-04T06:03:51.097Z,6.47
2023-01-04T06:08:55.242Z,7.67
2023-01-04T06:13:58.440Z,7.10
2023-01-04T06:19:02.123Z,6.47
2023-01-04T06:24:05.558Z,8.97
2023-01-04T06:29:08.613Z,8.30
2023-01-04T06:34:13.537Z,7.80
2023-01-04T06:39:16.543Z,7.93
2023-01-04T06:44:19.568Z,8.97
2023-01-04T06:49:23.061Z,7.13
2023-01-04T06:54:26.024Z,6.60
2023-01-04T06:59:28.884Z,7.50
2023-01-04T07:04:31.792Z,10.00
2023-01-04T07:09:36.253Z,8.47
2023-01-04T07:14:38.986Z,7.90
2023-01-04T07:19:42.117Z,7.23
2023-01-04T07:24:45.214Z,7.00
2023-01-04T07:29:48.157Z,5.87
2023-01-04T07:34:51.180Z,6.87
2023-01-04T07:39:54.220Z,8.93
2023-01-04T07:44:57.083Z,5.53
2023-01-04T07:50:00.295Z,6.40
2023-01-04T07:55:03.281Z,5.23
2023-01-04T08:00:07.248Z,8.30
2023-01-04T08:05:10.363Z,5.57
2023-01-04T08:10:13.531Z,8.43
2023-01-04T08:15:16.637Z,7.40
2023-01-04T08:20:20.086Z,11.10
2023-01-04T08:25:23.130Z,23.13
2023-01-04T08:30:26.184Z,11.67
2023-01-04T08:35:29.547Z,15.60
2023-01-04T08:40:58.844Z,8.03
2023-01-04T08:45:55.586Z,8.47
2023-01-04T08:51:04.440Z,5.87
2023-01-04T08:56:08.629Z,6.75
2023-01-04T09:01:11.963Z,8.00
2023-01-04T09:06:16.492Z,7.63
2023-01-04T09:11:22.196Z,6.80
2023-01-04T09:16:25.451Z,8.87
2023-01-04T09:21:28.459Z,7.90
2023-01-04T09:26:31.449Z,9.87
2023-01-04T09:31:34.416Z,10.27
2023-01-04T09:36:37.643Z,7.77
2023-01-04T09:41:52.341Z,8.13
2023-01-04T09:47:07.148Z,8.73
2023-01-04T09:52:10.001Z,7.03
2023-01-04T09:57:36.974Z,6.53
2023-01-04T10:02:53.182Z,6.80
2023-01-04T10:07:57.149Z,8.90
2023-01-04T10:13:24.961Z,7.40
2023-01-04T10:25:15.208Z,7.33
2023-01-04T10:31:39.546Z,5.87
2023-01-04T10:36:32.231Z,5.40
2023-01-04T10:41:43.008Z,5.27
2023-01-04T10:46:58.308Z,4.80
2023-01-04T10:52:09.686Z,4.50
2023-01-04T10:57:30.971Z,4.15
2023-01-04T11:02:50.046Z,4.18
2023-01-04T11:08:02.099Z,4.10
2023-01-04T11:13:05.445Z,5.03
2023-01-04T11:18:11.640Z,4.53
2023-01-04T11:23:17.814Z,3.10
2023-01-04T11:29:03.858Z,2.80
2023-01-04T11:34:07.229Z,1.90
2023-01-04T11:39:25.692Z,1.60
2023-01-04T11:44:28.986Z,2.23
2023-01-04T11:49:37.027Z,2.90
2023-01-04T11:54:39.907Z,2.23
2023-01-04T11:59:42.914Z,2.53
2023-01-04T12:04:46.132Z,2.30
2023-01-04T12:09:49.235Z,2.97
2023-01-04T12:14:52.689Z,2.67
2023-01-04T12:19:58.032Z,3.10
2023-01-04T12:25:04.052Z,2.10
2023-01-04T12:30:08.215Z,1.80
2023-01-04T12:36:03.796Z,2.23
2023-01-04T12:41:06.639Z,2.40
2023-01-04T12:46:49.970Z,1.27
2023-01-04T12:57:38.906Z,1.43
2023-01-04T13:03:15.013Z,1.93
2023-01-04T13:08:18.900Z,2.10
2023-01-04T13:13:55.825Z,8.63
2023-01-04T13:19:18.814Z,1.30
2023-01-04T13:24:24.509Z,2.50
2023-01-04T13:29:36.547Z,3.60
2023-01-04T13:35:09.794Z,9.40
2023-01-04T13:40:38.104Z,2.70
2023-01-04T13:46:08.421Z,1.60
2023-01-04T13:51:36.260Z,1.77
2023-01-04T13:56:40.382Z,1.80
2023-01-04T14:01:51.401Z,3.30
2023-01-04T14:06:59.542Z,1.20
2023-01-04T14:12:17.838Z,1.07
2023-01-04T14:17:50.777Z,1.47
2023-01-04T14:22:58.325Z,1.93
2023-01-04T14:28:30.698Z,2.27
2023-01-04T14:39:06.690Z,1.73
2023-01-04T14:44:20.870Z,3.33
2023-01-04T14:49:26.866Z,4.07
2023-01-04T14:54:31.851Z,4.07
2023-01-04T14:59:34.763Z,3.50
2023-01-04T15:04:37.778Z,3.97
2023-01-04T15:09:40.754Z,4.37
2023-01-04T15:14:44.939Z,4.40
2023-01-04T15:19:47.971Z,5.87
2023-01-04T15:24:50.881Z,5.50
2023-01-04T15:29:53.909Z,5.63
2023-01-04T15:34:56.896Z,8.20
2023-01-04T15:40:02.908Z,9.50
2023-01-04T15:45:07.306Z,8.80
2023-01-04T15:50:10.466Z,11.93
2023-01-04T15:55:14.463Z,11.40
2023-01-04T16:00:18.501Z,11.37
2023-01-04T16:05:21.803Z,10.90
2023-01-04T16:10:25.869Z,12.70
2023-01-04T16:15:28.913Z,13.80
2023-01-04T16:20:31.845Z,17.33
2023-01-04T16:25:34.923Z,16.50
2023-01-04T16:30:38.962Z,16.77
2023-01-04T16:35:41.909Z,17.80
2023-01-04T16:40:45.057Z,13.30
2023-01-04T16:45:48.783Z,14.67
2023-01-04T16:50:51.701Z,14.47
2023-01-04T16:55:54.517Z,15.97
2023-01-04T17:01:10.134Z,16.50
2023-01-04T17:06:20.217Z,16.63
2023-01-04T17:16:57.609Z,18.13
2023-01-04T17:22:00.800Z,17.97
2023-01-04T17:27:03.911Z,18.60
2023-01-04T17:32:07.092Z,17.53
2023-01-04T17:37:10.175Z,17.00
2023-01-04T17:42:13.128Z,20.07
2023-01-04T17:47:16.113Z,26.57
2023-01-04T17:52:25.895Z,27.83
2023-01-04T17:57:35.172Z,33.43
2023-01-04T18:02:38.125Z,30.87
2023-01-04T18:07:41.216Z,29.13
2023-01-04T18:12:44.336Z,29.77
2023-01-04T18:17:47.255Z,25.90
2023-01-04T18:22:50.045Z,25.50
2023-01-04T18:27:53.448Z,25.10
2023-01-04T18:32:56.538Z,26.77
2023-01-04T18:37:59.623Z,31.70
2023-01-04T18:43:02.697Z,30.67
2023-01-04T18:48:05.787Z,27.03
2023-01-04T18:53:08.688Z,26.47
2023-01-04T18:58:11.705Z,26.77
2023-01-04T19:03:18.383Z,25.30
2023-01-04T19:08:22.108Z,23.50
2023-01-04T19:13:25.196Z,26.50
2023-01-04T19:18:29.041Z,22.50
2023-01-04T19:23:31.837Z,27.83
2023-01-04T19:28:34.897Z,31.43
2023-01-04T19:33:38.373Z,28.03
2023-01-04T19:38:41.885Z,28.00
2023-01-04T19:43:44.860Z,26.47
2023-01-04T19:48:47.716Z,27.63
2023-01-04T19:53:51.786Z,29.50
2023-01-04T19:58:54.776Z,26.73
2023-01-04T20:03:57.989Z,23.87
2023-01-04T20:09:00.733Z,24.73
2023-01-04T20:14:03.971Z,26.43
2023-01-04T20:19:06.714Z,22.37
2023-01-04T20:24:10.211Z,20.53
2023-01-04T20:29:13.351Z,21.40
2023-01-04T20:34:16.354Z,20.17
2023-01-04T20:39:19.116Z,17.77
2023-01-04T20:44:22.079Z,21.97
2023-01-04T20:49:25.119Z,26.37
2023-01-04T20:54:28.140Z,23.17
2023-01-04T20:59:31.291Z,24.10
2023-01-04T21:04:34.674Z,21.90
2023-01-04T21:09:37.654Z,21.70
2023-01-04T21:14:41.125Z,21.47
2023-01-04T21:19:44.568Z,18.97
2023-01-04T21:24:47.483Z,16.10
2023-01-04T21:29:51.615Z,18.63
2023-01-04T21:34:54.571Z,18.17
2023-01-04T21:39:57.568Z,17.10
2023-01-04T21:45:00.706Z,14.77
2023-01-04T21:50:05.045Z,16.30
2023-01-04T21:55:09.004Z,15.27
2023-01-04T22:00:12.476Z,18.20
2023-01-04T22:05:15.502Z,19.07
2023-01-04T22:10:18.467Z,18.53
2023-01-04T22:15:21.712Z,16.30
2023-01-04T22:20:24.896Z,16.30
2023-01-04T22:25:27.865Z,14.27
2023-01-04T22:30:30.855Z,12.60
2023-01-04T22:35:33.817Z,15.80
2023-01-04T22:40:39.992Z,14.23
2023-01-04T22:45:43.278Z,12.63
2023-01-04T22:50:46.189Z,13.83
2023-01-04T23:01:12.418Z,15.70
2023-01-04T23:06:15.393Z,14.90
2023-01-04T23:11:21.142Z,12.70
2023-01-04T23:16:32.036Z,11.33
2023-01-04T23:21:36.611Z,11.03
2023-01-04T23:26:40.078Z,10.13
2023-01-04T23:31:43.359Z,10.53
2023-01-04T23:36:46.317Z,8.63
2023-01-04T23:41:49.441Z,9.27
2023-01-04T23:47:02.540Z,7.93
2023-01-04T23:52:06.638Z,9.20
2023-01-04T23:57:09.847Z,7.67
